Time;durP1;ratioP1;P1;durP2;ratioP2;P2;SDS_P1;SDS_P2;PMS_P1;PMS_P2;Temp;Humidity;BMP_temperature;BMP_pressure;BME280_temperature;BME280_humidity;BME280_pressure;Samples;Min_cycle;Max_cycle;Signal;HPM_P1;HPM_P2
2023/06/06 00:00:41;;;;;;;1999.90;999.90;;;15.50;99.90;;;;;;6315025;22;20036;-75
2023/06/06 00:03:06;;;;;;;1999.90;999.90;;;15.50;99.90;;;;;;6314178;22;20003;-75
2023/06/06 00:05:33;;;;;;;1999.90;999.90;;;15.40;99.90;;;;;;6287417;22;20004;-75
2023/06/06 00:07:59;;;;;;;1999.90;999.90;;;15.30;99.90;;;;;;6314670;22;20047;-75
2023/06/06 00:10:25;;;;;;;1999.90;999.90;;;15.30;99.90;;;;;;6314606;22;20004;-75
2023/06/06 00:12:52;;;;;;;1999.90;999.90;;;15.30;99.90;;;;;;6314576;22;20003;-75
2023/06/06 00:15:19;;;;;;;1999.90;999.90;;;15.30;99.90;;;;;;6314931;22;20418;-75
2023/06/06 00:17:48;;;;;;;1999.90;999.90;;;15.30;99.90;;;;;;6287245;22;20012;-75
2023/06/06 00:20:14;;;;;;;1999.90;999.90;;;15.20;99.90;;;;;;6314753;22;20030;-75
2023/06/06 00:22:40;;;;;;;1999.90;999.90;;;15.10;99.90;;;;;;6314451;22;20006;-75
2023/06/06 00:25:07;;;;;;;1999.90;999.90;;;15.10;99.90;;;;;;6286982;22;20447;-75
2023/06/06 00:27:34;;;;;;;1999.90;999.90;;;15.00;99.90;;;;;;6314790;22;20003;-75
2023/06/06 00:29:59;;;;;;;1999.90;999.90;;;14.90;99.90;;;;;;6314778;22;20351;-75
2023/06/06 00:32:26;;;;;;;1999.90;999.90;;;14.80;99.90;;;;;;6286693;22;20014;-75
2023/06/06 00:34:51;;;;;;;1999.90;999.90;;;14.70;99.90;;;;;;6314755;22;20015;-75
2023/06/06 00:37:17;;;;;;;1999.90;999.90;;;14.60;99.90;;;;;;6314685;22;20007;-75
2023/06/06 00:39:42;;;;;;;1999.90;999.90;;;14.50;99.90;;;;;;6314747;22;20469;-75
2023/06/06 00:42:08;;;;;;;1999.90;999.90;;;14.60;99.90;;;;;;6314417;22;20008;-75
2023/06/06 00:44:34;;;;;;;1999.90;999.90;;;14.50;99.90;;;;;;6314500;22;20504;-75
2023/06/06 00:47:00;;;;;;;1999.90;999.90;;;14.40;99.90;;;;;;6314676;22;20003;-75
2023/06/06 00:49:26;;;;;;;1999.90;999.90;;;14.40;99.90;;;;;;6314231;22;20065;-75
2023/06/06 00:51:52;;;;;;;1999.90;999.90;;;14.30;99.90;;;;;;6286538;22;20400;-75
2023/06/06 00:54:18;;;;;;;1999.90;999.90;;;14.30;99.90;;;;;;6314463;22;20383;-75
2023/06/06 00:56:47;;;;;;;1999.90;999.90;;;14.20;99.90;;;;;;6314774;22;20034;-75
2023/06/06 00:59:14;;;;;;;1999.90;999.90;;;14.20;99.90;;;;;;6311932;22;20031;-71
2023/06/06 01:01:41;;;;;;;1999.90;999.90;;;14.10;99.90;;;;;;6286140;22;20093;-71
2023/06/06 01:04:12;;;;;;;1999.90;999.90;;;14.10;99.90;;;;;;6314673;22;20004;-71
2023/06/06 01:06:38;;;;;;;1999.90;999.90;;;14.00;99.90;;;;;;6286679;22;20026;-71
2023/06/06 01:09:07;;;;;;;1999.90;999.90;;;14.00;99.90;;;;;;6314289;22;20008;-71
2023/06/06 01:11:52;;;;;;;1999.90;999.90;;;14.00;99.90;;;;;;6314255;22;20027;-71
2023/06/06 01:14:33;;;;;;;1999.90;999.90;;;13.90;99.90;;;;;;6314320;22;20023;-71
2023/06/06 01:17:03;;;;;;;1999.90;999.90;;;13.90;99.90;;;;;;6287051;22;20007;-71
2023/06/06 01:19:33;;;;;;;1999.90;999.90;;;13.90;99.90;;;;;;6286757;22;20011;-72
2023/06/06 01:22:00;;;;;;;1999.90;999.90;;;13.80;99.90;;;;;;6314227;22;20008;-72
2023/06/06 01:24:27;;;;;;;1999.90;999.90;;;13.80;99.90;;;;;;6313583;22;20018;-71
2023/06/06 01:26:54;;;;;;;1999.90;999.90;;;13.90;99.90;;;;;;6314350;22;20081;-71
2023/06/06 01:29:21;;;;;;;1999.90;999.90;;;13.70;99.90;;;;;;6314482;22;20067;-72
2023/06/06 01:31:58;;;;;;;1999.90;999.90;;;13.70;99.90;;;;;;6314326;22;20000;-71
2023/06/06 01:34:35;;;;;;;1999.90;999.90;;;13.70;99.90;;;;;;6314557;22;20015;-71
2023/06/06 01:37:36;;;;;;;1999.90;999.90;;;13.60;99.90;;;;;;6314312;22;20004;-71
2023/06/06 01:40:07;;;;;;;1999.90;999.90;;;13.50;99.90;;;;;;6314383;22;20015;-71
2023/06/06 01:42:50;;;;;;;1999.90;999.90;;;13.40;99.90;;;;;;6314373;22;20007;-71
2023/06/06 01:45:18;;;;;;;1999.90;999.90;;;13.40;99.90;;;;;;6314542;22;20003;-71
2023/06/06 01:47:45;;;;;;;1999.90;999.90;;;13.40;99.90;;;;;;6286630;22;20003;-71
2023/06/06 01:50:11;;;;;;;1999.90;999.90;;;13.30;99.90;;;;;;6314441;22;20439;-71
2023/06/06 01:52:37;;;;;;;1999.90;999.90;;;13.30;99.90;;;;;;6314119;22;20083;-70
2023/06/06 01:55:07;;;;;;;1999.90;999.90;;;13.20;99.90;;;;;;6314211;22;20008;-71
2023/06/06 01:57:33;;;;;;;1999.90;999.90;;;13.30;99.90;;;;;;6286802;22;20008;-71
2023/06/06 01:59:59;;;;;;;1999.90;999.90;;;13.20;99.90;;;;;;6314519;22;20355;-71
2023/06/06 02:02:26;;;;;;;1999.90;999.90;;;13.20;99.90;;;;;;6286396;22;20004;-73
2023/06/06 02:04:52;;;;;;;1999.90;999.90;;;13.20;99.90;;;;;;6314260;22;20466;-72
2023/06/06 02:07:17;;;;;;;1999.90;999.90;;;13.10;99.90;;;;;;6313876;22;20039;-74
2023/06/06 02:09:43;;;;;;;1999.90;999.90;;;13.10;99.90;;;;;;6286136;22;20026;-74
2023/06/06 02:12:09;;;;;;;1999.90;999.90;;;13.10;99.90;;;;;;6286281;22;20079;-73
2023/06/06 02:14:35;;;;;;;1999.90;999.90;;;13.00;99.90;;;;;;6286622;22;20016;-73
2023/06/06 02:17:01;;;;;;;1999.90;999.90;;;13.00;99.90;;;;;;6314322;22;19999;-72
2023/06/06 02:19:27;;;;;;;1999.90;999.90;;;13.00;99.90;;;;;;6314070;22;20018;-73
2023/06/06 02:21:53;;;;;;;1999.90;999.90;;;13.00;99.90;;;;;;6313970;22;20000;-72
2023/06/06 02:24:18;;;;;;;1999.90;999.90;;;13.00;99.90;;;;;;6314401;22;20007;-73
2023/06/06 02:26:44;;;;;;;1999.90;999.90;;;12.90;99.90;;;;;;6286444;22;20439;-73
2023/06/06 02:29:10;;;;;;;1999.90;999.90;;;12.90;99.90;;;;;;6286589;22;20387;-72
2023/06/06 02:31:39;;;;;;;1999.90;999.90;;;12.80;99.90;;;;;;6313922;22;20138;-72
2023/06/06 02:34:05;;;;;;;1999.90;999.90;;;12.80;99.90;;;;;;6314161;22;20012;-73
2023/06/06 02:36:31;;;;;;;1999.90;999.90;;;12.70;99.90;;;;;;6314144;22;20004;-74
2023/06/06 02:38:57;;;;;;;1999.90;999.90;;;12.60;99.90;;;;;;6313917;22;20015;-73
2023/06/06 02:41:23;;;;;;;1999.90;999.90;;;12.60;99.90;;;;;;6314004;22;20011;-73
2023/06/06 02:43:49;;;;;;;1999.90;999.90;;;12.60;99.90;;;;;;6338869;22;20812;-74
2023/06/06 02:46:15;;;;;;;1999.90;999.90;;;12.60;99.90;;;;;;6314179;22;20036;-74
2023/06/06 02:48:45;;;;;;;1999.90;999.90;;;12.60;99.90;;;;;;6314101;22;20007;-74
2023/06/06 02:51:11;;;;;;;1999.90;999.90;;;12.60;99.90;;;;;;6313806;22;20003;-74
2023/06/06 02:53:40;;;;;;;1999.90;999.90;;;12.60;99.90;;;;;;6314074;22;20057;-74
2023/06/06 02:56:07;;;;;;;1999.90;999.90;;;12.60;99.90;;;;;;6314074;22;20004;-74
2023/06/06 02:58:33;;;;;;;1999.90;999.90;;;12.50;99.90;;;;;;6313468;22;20023;-74
2023/06/06 03:01:03;;;;;;;1999.90;999.90;;;12.50;99.90;;;;;;6313709;22;20007;-74
2023/06/06 03:03:29;;;;;;;1999.90;999.90;;;12.50;99.90;;;;;;6314134;22;20010;-74
2023/06/06 03:05:56;;;;;;;1999.90;999.90;;;12.50;99.90;;;;;;6314176;22;20000;-73
2023/06/06 03:08:22;;;;;;;1999.90;999.90;;;12.50;99.90;;;;;;6313814;22;20008;-74
2023/06/06 03:10:50;;;;;;;1999.90;999.90;;;12.40;99.90;;;;;;6313703;22;20377;-73
2023/06/06 03:13:16;;;;;;;1999.90;999.90;;;12.40;99.90;;;;;;6313920;22;20071;-74
2023/06/06 03:15:46;;;;;;;1999.90;999.90;;;12.40;99.90;;;;;;6286612;22;20095;-74
2023/06/06 03:18:16;;;;;;;1999.90;999.90;;;12.30;99.90;;;;;;6313559;22;20466;-74
2023/06/06 03:20:45;;;;;;;1999.90;999.90;;;12.30;99.90;;;;;;6313684;22;20332;-74
2023/06/06 03:23:12;;;;;;;1999.90;999.90;;;12.30;99.90;;;;;;6313141;22;20308;-74
2023/06/06 03:25:43;;;;;;;1999.90;999.90;;;12.30;99.90;;;;;;6314463;22;20008;-74
2023/06/06 03:28:09;;;;;;;1999.90;999.90;;;12.20;99.90;;;;;;6313513;22;20010;-74
2023/06/06 03:30:35;;;;;;;1999.90;999.90;;;12.20;99.90;;;;;;6313892;22;20008;-74
2023/06/06 03:33:03;;;;;;;1999.90;999.90;;;12.20;99.90;;;;;;6313503;22;20007;-74
2023/06/06 03:35:32;;;;;;;1999.90;999.90;;;12.20;99.90;;;;;;6313999;22;20030;-75
2023/06/06 03:37:58;;;;;;;1999.90;999.90;;;12.20;99.90;;;;;;6313714;22;20008;-74
2023/06/06 03:40:23;;;;;;;1999.90;999.90;;;12.20;99.90;;;;;;6313952;22;20007;-74
2023/06/06 03:42:50;;;;;;;1999.90;999.90;;;12.30;99.90;;;;;;6285725;22;20010;-73
2023/06/06 03:45:16;;;;;;;1999.90;999.90;;;12.20;99.90;;;;;;6313757;22;20015;-74
2023/06/06 03:47:41;;;;;;;1999.90;999.90;;;12.30;99.90;;;;;;6313511;22;20074;-74
2023/06/06 03:50:07;;;;;;;1999.90;999.90;;;12.20;99.90;;;;;;6313719;22;20011;-74
2023/06/06 03:52:33;;;;;;;1999.90;999.90;;;12.20;99.90;;;;;;6313259;22;20078;-72
2023/06/06 03:54:58;;;;;;;1999.90;999.90;;;12.20;99.90;;;;;;6313675;22;20038;-73
2023/06/06 03:57:24;;;;;;;1999.90;999.90;;;12.30;99.90;;;;;;6313007;22;20008;-73
2023/06/06 03:59:50;;;;;;;1999.90;999.90;;;12.30;99.90;;;;;;6313882;22;20003;-72
2023/06/06 04:02:17;;;;;;;1999.90;999.90;;;12.30;99.90;;;;;;6285428;22;20000;-74
2023/06/06 04:04:43;;;;;;;1999.90;999.90;;;12.30;99.90;;;;;;6313718;22;20339;-73
2023/06/06 04:07:09;;;;;;;1999.90;999.90;;;12.40;99.90;;;;;;6285723;22;20069;-74
2023/06/06 04:09:35;;;;;;;1999.90;999.90;;;12.40;99.90;;;;;;6313623;22;20069;-74
2023/06/06 04:12:02;;;;;;;1999.90;999.90;;;12.40;99.90;;;;;;6313170;22;20386;-74
2023/06/06 04:14:28;;;;;;;1999.90;999.90;;;12.40;99.90;;;;;;6323297;22;20008;-76
2023/06/06 04:16:54;;;;;;;1999.90;999.90;;;12.40;99.90;;;;;;6312651;22;20057;-72
2023/06/06 04:19:20;;;;;;;1999.90;999.90;;;12.50;99.90;;;;;;6285796;22;20081;-74
2023/06/06 04:21:46;;;;;;;1999.90;999.90;;;12.50;99.90;;;;;;6312786;22;20000;-72
2023/06/06 04:24:11;;;;;;;1999.90;999.90;;;12.50;99.90;;;;;;6338063;22;20011;-72
2023/06/06 04:26:37;;;;;;;1999.90;999.90;;;12.60;99.90;;;;;;6313258;22;20082;-72
2023/06/06 04:29:03;;;;;;;1999.90;999.90;;;12.60;99.90;;;;;;6313247;22;20103;-73
2023/06/06 04:31:32;;;;;;;1999.90;999.90;;;12.60;99.90;;;;;;6312992;22;20406;-72
2023/06/06 04:34:00;;;;;;;1999.90;999.90;;;12.70;99.90;;;;;;6314258;22;20364;-72
2023/06/06 04:36:26;;;;;;;1999.90;999.90;;;12.70;99.90;;;;;;6314780;22;20004;-72
2023/06/06 04:38:53;;;;;;;1999.90;999.90;;;12.80;99.90;;;;;;6314689;22;20012;-74
2023/06/06 04:41:22;;;;;;;1999.90;999.90;;;12.90;99.90;;;;;;6314367;22;19999;-74
2023/06/06 04:43:49;;;;;;;1999.90;999.90;;;12.90;99.90;;;;;;6314933;22;20745;-75
2023/06/06 04:46:21;;;;;;;1999.90;999.90;;;12.90;99.90;;;;;;6314917;22;20008;-74
2023/06/06 04:48:54;;;;;;;1999.90;999.90;;;13.00;99.90;;;;;;6314676;22;20078;-73
2023/06/06 04:51:30;;;;;;;1999.90;999.90;;;13.00;99.90;;;;;;6314241;22;20004;-72
2023/06/06 04:54:01;;;;;;;1999.90;999.90;;;13.00;99.90;;;;;;6314929;22;20011;-72
2023/06/06 04:56:30;;;;;;;1999.90;999.90;;;13.10;99.90;;;;;;6314719;22;20008;-73
2023/06/06 04:58:57;;;;;;;1999.90;999.90;;;13.20;99.90;;;;;;6314254;22;20041;-72
2023/06/06 05:01:23;;;;;;;1999.90;999.90;;;13.20;99.90;;;;;;6314036;22;20084;-74
2023/06/06 05:03:49;;;;;;;1999.90;999.90;;;13.30;99.90;;;;;;6287042;22;20043;-72
2023/06/06 05:06:15;;;;;;;1999.90;999.90;;;13.40;99.90;;;;;;6314716;22;20007;-73
2023/06/06 05:08:44;;;;;;;1999.90;999.90;;;13.50;99.90;;;;;;6286890;22;20075;-72
2023/06/06 05:11:12;;;;;;;1999.90;999.90;;;13.70;99.90;;;;;;6314379;22;20004;-73
2023/06/06 05:13:38;;;;;;;1999.90;999.90;;;13.80;99.90;;;;;;6314378;22;20020;-72
2023/06/06 05:16:04;;;;;;;1999.90;999.90;;;13.90;99.90;;;;;;6314527;22;20003;-72
2023/06/06 05:18:30;;;;;;;1999.90;999.90;;;14.00;99.90;;;;;;6286909;22;20454;-72
2023/06/06 05:21:02;;;;;;;1999.90;999.90;;;14.10;99.90;;;;;;6314173;22;20003;-73
2023/06/06 05:23:28;;;;;;;1999.90;999.90;;;14.20;99.90;;;;;;6314709;22;20010;-72
2023/06/06 05:25:56;;;;;;;1999.90;999.90;;;14.40;99.90;;;;;;6287011;22;20019;-73
2023/06/06 05:28:26;;;;;;;1999.90;999.90;;;14.40;99.90;;;;;;6314391;22;20007;-73
2023/06/06 05:30:56;;;;;;;1999.90;999.90;;;14.60;99.90;;;;;;6314108;22;20004;-73
2023/06/06 05:33:30;;;;;;;1999.90;999.90;;;14.70;99.90;;;;;;6314728;22;21942;-74
2023/06/06 05:35:56;;;;;;;1999.90;999.90;;;14.80;99.90;;;;;;6287147;22;20058;-74
2023/06/06 05:38:23;;;;;;;1999.90;999.90;;;14.80;99.90;;;;;;6314255;22;20044;-74
2023/06/06 05:40:48;;;;;;;1999.90;999.90;;;15.00;99.90;;;;;;6314799;22;20015;-74
2023/06/06 05:43:15;;;;;;;1999.90;999.90;;;15.10;99.90;;;;;;6314323;22;20007;-74
2023/06/06 05:45:41;;;;;;;1999.90;999.90;;;15.20;99.90;;;;;;6286156;22;20046;-74
2023/06/06 05:48:06;;;;;;;1999.90;999.90;;;15.30;99.90;;;;;;6314172;22;20004;-73
2023/06/06 05:50:32;;;;;;;1999.90;999.90;;;15.40;99.90;;;;;;6314499;22;20145;-73
2023/06/06 05:52:58;;;;;;;1999.90;999.90;;;15.50;99.90;;;;;;6314311;22;20070;-74
2023/06/06 05:55:28;;;;;;;1999.90;999.90;;;15.60;99.90;;;;;;6286718;22;20069;-76
2023/06/06 05:57:55;;;;;;;1999.90;999.90;;;15.70;99.90;;;;;;6313263;22;20082;-74
2023/06/06 06:00:22;;;;;;;1999.90;999.90;;;15.80;99.90;;;;;;6314238;22;20459;-74
2023/06/06 06:02:51;;;;;;;1999.90;999.90;;;15.90;99.90;;;;;;6314292;22;20071;-73
2023/06/06 06:05:17;;;;;;;1999.90;999.90;;;16.00;99.90;;;;;;6286752;22;20007;-76
2023/06/06 06:07:44;;;;;;;1999.90;999.90;;;16.00;99.90;;;;;;6314053;22;20000;-73
2023/06/06 06:10:10;;;;;;;1999.90;999.90;;;16.20;99.90;;;;;;6313989;22;20011;-73
2023/06/06 06:12:36;;;;;;;1999.90;999.90;;;16.20;99.90;;;;;;6313281;22;20004;-74
2023/06/06 06:15:02;;;;;;;1999.90;999.90;;;16.30;99.90;;;;;;6278273;22;20069;-72
2023/06/06 06:17:27;;;;;;;1999.90;999.90;;;16.40;99.90;;;;;;6314019;22;20466;-76
2023/06/06 06:19:53;;;;;;;1999.90;999.90;;;16.50;99.90;;;;;;6286751;22;20018;-73
2023/06/06 06:22:19;;;;;;;1999.90;999.90;;;16.50;99.90;;;;;;6314076;22;20004;-74
2023/06/06 06:24:44;;;;;;;1999.90;999.90;;;16.70;99.90;;;;;;6314408;22;20008;-76
2023/06/06 06:27:10;;;;;;;1999.90;999.90;;;16.70;99.90;;;;;;6314332;22;20000;-76
2023/06/06 06:29:36;;;;;;;1999.90;999.90;;;16.80;99.90;;;;;;6314418;22;20431;-79
2023/06/06 06:32:01;;;;;;;1999.90;999.90;;;16.80;99.90;;;;;;6287528;22;20366;-76
2023/06/06 06:34:27;;;;;;;1999.90;999.90;;;16.90;99.90;;;;;;6314153;22;20420;-76
2023/06/06 06:36:52;;;;;;;1999.90;999.90;;;17.00;99.90;;;;;;6289056;22;20011;-78
2023/06/06 06:39:20;;;;;;;1999.90;999.90;;;17.10;99.90;;;;;;6315579;22;20094;-79
2023/06/06 06:41:46;;;;;;;1999.90;999.90;;;17.20;99.90;;;;;;6317990;22;20069;-77
2023/06/06 06:44:12;;;;;;;1999.90;999.90;;;17.30;99.70;;;;;;6316397;22;20803;-81
2023/06/06 06:46:37;;;;;;;1999.90;999.90;;;17.50;99.60;;;;;;6317330;22;20004;-76
2023/06/06 06:49:12;;;;;;;1999.90;999.90;;;17.60;99.60;;;;;;6314206;22;20007;-75
2023/06/06 06:51:38;;;;;;;1999.90;999.90;;;17.70;99.30;;;;;;6313935;22;20058;-76
2023/06/06 06:54:04;;;;;;;1999.90;999.90;;;17.90;99.30;;;;;;6314008;22;20099;-74
2023/06/06 06:56:29;;;;;;;1999.90;999.90;;;17.90;98.80;;;;;;6313683;22;20042;-72
2023/06/06 06:58:57;;;;;;;1999.90;999.90;;;18.20;98.60;;;;;;6293110;22;20028;-70
2023/06/06 07:01:27;;;;;;;1999.90;999.90;;;18.40;98.50;;;;;;6313010;22;20011;-70
2023/06/06 07:03:53;;;;;;;1999.90;999.90;;;18.80;97.30;;;;;;6337973;22;20019;-69
2023/06/06 07:06:20;;;;;;;1999.90;999.90;;;18.80;96.90;;;;;;6313492;22;20004;-70
2023/06/06 07:08:45;;;;;;;1999.90;999.90;;;19.00;96.30;;;;;;6314065;22;20008;-71
2023/06/06 07:11:11;;;;;;;1999.90;999.90;;;19.30;96.00;;;;;;6314038;22;20460;-70
2023/06/06 07:13:37;;;;;;;1999.90;999.90;;;19.20;95.80;;;;;;6313315;22;20402;-71
2023/06/06 07:16:02;;;;;;;1999.90;999.90;;;19.40;95.20;;;;;;6314045;22;20014;-71
2023/06/06 07:18:28;;;;;;;1999.90;999.90;;;19.40;95.00;;;;;;6313828;22;20011;-71
2023/06/06 07:20:54;;;;;;;1999.90;999.90;;;19.70;95.20;;;;;;6311852;22;20008;-74
2023/06/06 07:23:19;;;;;;;1999.90;999.90;;;20.00;94.00;;;;;;6314269;22;20431;-73
2023/06/06 07:25:45;;;;;;;1999.90;999.90;;;20.20;93.10;;;;;;6314047;22;20008;-72
2023/06/06 07:28:13;;;;;;;1999.90;999.90;;;20.30;92.80;;;;;;6312031;22;20015;-73
2023/06/06 07:30:38;;;;;;;1999.90;999.90;;;20.50;92.10;;;;;;6313852;22;20422;-73
2023/06/06 07:33:04;;;;;;;1999.90;999.90;;;20.80;91.20;;;;;;6313249;22;20004;-72
2023/06/06 07:35:32;;;;;;;1999.90;999.90;;;21.10;91.50;;;;;;6313779;22;20036;-72
2023/06/06 07:37:59;;;;;;;1999.90;999.90;;;21.40;90.70;;;;;;6313717;22;20003;-73
2023/06/06 07:40:24;;;;;;;1999.90;999.90;;;21.30;89.90;;;;;;6313916;22;20015;-72
2023/06/06 07:42:50;;;;;;;1999.90;999.90;;;21.40;90.50;;;;;;6313403;22;20015;-73
2023/06/06 07:45:16;;;;;;;1999.90;999.90;;;21.60;90.10;;;;;;6313900;22;20015;-73
2023/06/06 07:47:42;;;;;;;1999.90;999.90;;;21.80;88.20;;;;;;6313374;22;20378;-73
2023/06/06 07:50:08;;;;;;;1999.90;999.90;;;21.80;86.70;;;;;;6313685;22;20049;-72
2023/06/06 07:52:34;;;;;;;1999.90;999.90;;;22.10;85.80;;;;;;6312963;22;20008;-73
2023/06/06 07:55:00;;;;;;;1999.90;999.90;;;22.00;85.10;;;;;;6313706;22;20012;-72
2023/06/06 07:57:27;;;;;;;1999.90;999.90;;;21.90;86.10;;;;;;6313624;22;20512;-73
2023/06/06 07:59:53;;;;;;;1999.90;999.90;;;22.20;85.20;;;;;;6188131;22;20009;-72
2023/06/06 08:02:19;;;;;;;1999.90;999.90;;;22.00;84.80;;;;;;6290629;22;20033;-71
2023/06/06 08:04:45;;;;;;;1999.90;999.90;;;21.70;85.50;;;;;;6186004;23;20029;-73
2023/06/06 08:07:12;;;;;;;1999.90;999.90;;;22.00;84.80;;;;;;6185896;22;20455;-75
2023/06/06 08:09:37;;;;;;;1999.90;999.90;;;22.00;84.70;;;;;;6188044;22;20089;-73
2023/06/06 08:12:05;;;;;;;1999.90;999.90;;;22.40;83.50;;;;;;6186195;23;20398;-73
2023/06/06 08:14:33;;;;;;;1999.90;999.90;;;22.50;83.60;;;;;;6291396;22;20018;-73
2023/06/06 08:16:59;;;;;;;1999.90;999.90;;;22.70;82.00;;;;;;6187168;23;20005;-73
2023/06/06 08:19:24;;;;;;;1999.90;999.90;;;22.70;83.30;;;;;;6187730;22;20391;-73
2023/06/06 08:21:50;;;;;;;1999.90;999.90;;;22.60;82.40;;;;;;6187314;23;20052;-74
2023/06/06 08:24:15;;;;;;;1999.90;999.90;;;22.60;81.80;;;;;;6187715;23;20013;-74
2023/06/06 08:26:41;;;;;;;1999.90;999.90;;;22.70;81.50;;;;;;6187512;23;20029;-74
2023/06/06 08:29:06;;;;;;;1999.90;999.90;;;23.10;80.50;;;;;;6187159;23;20456;-74
2023/06/06 08:31:32;;;;;;;1999.90;999.90;;;23.10;78.70;;;;;;6187371;23;20010;-73
2023/06/06 08:33:57;;;;;;;1999.90;999.90;;;23.30;77.70;;;;;;6187737;23;20495;-73
2023/06/06 08:36:23;;;;;;;1999.90;999.90;;;23.10;75.70;;;;;;6187654;23;20014;-74
2023/06/06 08:38:49;;;;;;;1999.90;999.90;;;23.30;76.70;;;;;;6318341;22;20104;-71
2023/06/06 08:41:15;;;;;;;1999.90;999.90;;;23.70;76.40;;;;;;6187039;22;20014;-72
2023/06/06 08:43:42;;;;;;;1999.90;999.90;;;23.90;76.10;;;;;;6187543;23;20012;-71
2023/06/06 08:46:07;;;;;;;1999.90;999.90;;;24.10;74.70;;;;;;6187596;23;20463;-71
2023/06/06 08:48:35;;;;;;;1999.90;999.90;;;23.80;73.60;;;;;;6187453;23;20016;-72
2023/06/06 08:51:03;;;;;;;1999.90;999.90;;;23.90;74.40;;;;;;6291379;22;20371;-72
2023/06/06 08:53:30;;;;;;;1999.90;999.90;;;23.90;73.90;;;;;;6187281;23;20013;-72
2023/06/06 08:55:59;;;;;;;1999.90;999.90;;;23.70;74.60;;;;;;6187878;22;20400;-71
2023/06/06 08:58:26;;;;;;;1999.90;999.90;;;23.90;73.00;;;;;;6186833;22;20036;-71
2023/06/06 09:00:51;;;;;;;1999.90;999.90;;;24.10;75.20;;;;;;6291572;22;20119;-72
2023/06/06 09:03:20;;;;;;;1999.90;999.90;;;24.00;73.30;;;;;;6187116;22;20128;-71
2023/06/06 09:05:49;;;;;;;1999.90;999.90;;;24.20;72.40;;;;;;6187620;22;20017;-72
2023/06/06 09:08:17;;;;;;;1999.90;999.90;;;24.30;72.00;;;;;;6186956;23;20005;-71
2023/06/06 09:10:42;;;;;;;1999.90;999.90;;;24.70;71.90;;;;;;6187167;23;20018;-71
2023/06/06 09:13:08;;;;;;;1999.90;999.90;;;24.70;69.70;;;;;;6186863;23;20360;-72
2023/06/06 09:15:34;;;;;;;1999.90;999.90;;;24.50;73.20;;;;;;6291313;22;20013;-71
2023/06/06 09:17:59;;;;;;;1999.90;999.90;;;24.60;71.70;;;;;;6187214;23;20012;-72
2023/06/06 09:20:25;;;;;;;1999.90;999.90;;;24.90;73.00;;;;;;6186448;22;20326;-72
2023/06/06 09:22:52;;;;;;;1999.90;999.90;;;24.90;71.20;;;;;;6186862;23;20024;-72
2023/06/06 09:25:22;;;;;;;1999.90;999.90;;;24.70;69.90;;;;;;6187327;23;20056;-72
2023/06/06 09:27:52;;;;;;;1999.90;999.90;;;24.60;70.50;;;;;;6186679;23;20010;-72
2023/06/06 09:30:19;;;;;;;1999.90;999.90;;;24.60;71.70;;;;;;6187244;23;20013;-72
2023/06/06 09:32:46;;;;;;;1999.90;999.90;;;25.10;70.40;;;;;;6186864;22;20005;-71
2023/06/06 09:35:15;;;;;;;1999.90;999.90;;;25.30;70.50;;;;;;6187093;22;20012;-72
2023/06/06 09:37:40;;;;;;;1999.90;999.90;;;25.40;69.00;;;;;;6187095;23;20010;-73
2023/06/06 09:40:14;;;;;;;1999.90;999.90;;;25.30;68.40;;;;;;6291801;22;20013;-77
2023/06/06 09:42:42;;;;;;;1999.90;999.90;;;25.30;69.30;;;;;;6290758;22;20081;-71
2023/06/06 09:45:20;;;;;;;1999.90;999.90;;;25.20;68.60;;;;;;6187214;23;20333;-71
2023/06/06 09:47:47;;;;;;;1999.90;999.90;;;25.20;71.60;;;;;;6186631;23;20012;-70
2023/06/06 09:50:14;;;;;;;1999.90;999.90;;;25.60;72.20;;;;;;6187025;23;20010;-74
2023/06/06 09:52:41;;;;;;;1999.90;999.90;;;25.50;69.60;;;;;;6186122;23;20013;-71
2023/06/06 09:55:08;;;;;;;1999.90;999.90;;;25.80;69.30;;;;;;6186898;23;20514;-69
2023/06/06 09:57:36;;;;;;;1999.90;999.90;;;25.70;68.90;;;;;;6186434;23;20067;-71
2023/06/06 10:00:10;;;;;;;1999.90;999.90;;;26.00;69.10;;;;;;6186811;23;20310;-70
2023/06/06 10:02:47;;;;;;;1999.90;999.90;;;26.10;71.00;;;;;;6186731;22;20001;-70
2023/06/06 10:05:15;;;;;;;1999.90;999.90;;;26.10;66.80;;;;;;6291445;22;20021;-71
2023/06/06 10:07:44;;;;;;;1999.90;999.90;;;26.00;66.10;;;;;;6186578;23;20013;-70
2023/06/06 10:10:11;;;;;;;1999.90;999.90;;;26.10;67.80;;;;;;6186772;23;20067;-71
2023/06/06 10:12:38;;;;;;;1999.90;999.90;;;26.40;66.30;;;;;;6186406;23;20014;-71
2023/06/06 10:15:07;;;;;;;1999.90;999.90;;;26.10;66.50;;;;;;6186487;23;20025;-71
2023/06/06 10:17:36;;;;;;;1999.90;999.90;;;25.50;68.40;;;;;;6186076;23;20005;-71
2023/06/06 10:20:06;;;;;;;1999.90;999.90;;;25.60;68.20;;;;;;6291042;22;20017;-71
2023/06/06 10:22:36;;;;;;;1999.90;999.90;;;25.60;67.50;;;;;;6186486;22;20009;-70
2023/06/06 10:25:03;;;;;;;1999.90;999.90;;;26.20;67.50;;;;;;6186670;23;20416;-70
2023/06/06 10:27:54;;;;;;;1999.90;999.90;;;26.30;69.40;;;;;;6186267;23;20005;-71
2023/06/06 10:30:31;;;;;;;1999.90;999.90;;;26.00;69.20;;;;;;6186429;23;20013;-71
2023/06/06 10:33:28;;;;;;;1999.90;999.90;;;26.20;64.70;;;;;;6186269;23;20333;-72
2023/06/06 10:36:03;;;;;;;1999.90;999.90;;;26.30;65.70;;;;;;6186629;23;20460;-71
2023/06/06 10:38:29;;;;;;;1999.90;999.90;;;26.50;68.80;;;;;;6186417;23;20001;-71
2023/06/06 10:40:58;;;;;;;1999.90;999.90;;;26.50;64.00;;;;;;6186437;22;20014;-71
2023/06/06 10:43:32;;;;;;;1999.90;999.90;;;26.80;67.80;;;;;;6186377;23;20099;-71
2023/06/06 10:45:58;;;;;;;1999.90;999.90;;;27.30;64.90;;;;;;6186510;23;20008;-72
2023/06/06 10:48:45;;;;;;;1999.90;999.90;;;27.60;62.30;;;;;;6186307;23;20424;-71
2023/06/06 10:51:30;;;;;;;1999.90;999.90;;;27.20;61.70;;;;;;6186284;22;20017;-71
2023/06/06 10:54:19;;;;;;;1999.90;999.90;;;27.10;64.80;;;;;;6186334;23;20541;-72
2023/06/06 10:56:53;;;;;;;1999.90;999.90;;;27.00;63.40;;;;;;6186886;23;20003;-73
2023/06/06 10:59:28;;;;;;;1999.90;999.90;;;26.70;61.10;;;;;;6185795;23;20028;-72
2023/06/06 11:01:55;;;;;;;1999.90;999.90;;;27.10;63.40;;;;;;6185634;23;20010;-73
2023/06/06 11:04:25;;;;;;;1999.90;999.90;;;27.40;62.30;;;;;;6185797;23;20039;-73
2023/06/06 11:06:52;;;;;;;1999.90;999.90;;;27.70;61.20;;;;;;6186251;23;20008;-75
2023/06/06 11:09:24;;;;;;;1999.90;999.90;;;27.90;62.80;;;;;;6290960;22;20006;-73
2023/06/06 11:12:10;;;;;;;1999.90;999.90;;;27.50;62.50;;;;;;6185839;23;20006;-73
2023/06/06 11:14:57;;;;;;;1999.90;999.90;;;27.90;60.80;;;;;;6290952;22;20018;-74
2023/06/06 11:17:29;;;;;;;1999.90;999.90;;;27.80;61.30;;;;;;6291237;22;20083;-73
2023/06/06 11:19:56;;;;;;;1999.90;999.90;;;27.30;61.20;;;;;;6186559;23;20038;-75
2023/06/06 11:22:23;;;;;;;1999.90;999.90;;;27.10;63.20;;;;;;6185500;23;20010;-73
2023/06/06 11:24:49;;;;;;;1999.90;999.90;;;27.20;64.60;;;;;;6186234;23;20006;-72
2023/06/06 11:27:16;;;;;;;1999.90;999.90;;;27.40;63.90;;;;;;6186194;23;20068;-72
2023/06/06 11:29:42;;;;;;;1999.90;999.90;;;27.90;58.90;;;;;;6186047;22;20005;-71
2023/06/06 11:32:12;;;;;;;1999.90;999.90;;;28.00;59.20;;;;;;6317001;22;20009;-72
2023/06/06 11:34:38;;;;;;;1999.90;999.90;;;28.50;57.40;;;;;;6184305;22;20022;-70
2023/06/06 11:37:07;;;;;;;1999.90;999.90;;;28.70;57.50;;;;;;6185293;22;20009;-71
2023/06/06 11:39:33;;;;;;;1999.90;999.90;;;28.30;58.50;;;;;;6185540;23;20006;-70
2023/06/06 11:42:00;;;;;;;1999.90;999.90;;;27.60;58.80;;;;;;6184814;23;20006;-71
2023/06/06 11:44:36;;;;;;;1999.90;999.90;;;27.10;61.20;;;;;;6184443;23;20025;-71
2023/06/06 11:47:08;;;;;;;1999.90;999.90;;;27.10;60.70;;;;;;6185579;23;20588;-70
2023/06/06 11:49:47;;;;;;;1999.90;999.90;;;27.40;59.00;;;;;;6185359;23;20356;-70
2023/06/06 11:52:13;;;;;;;1999.90;999.90;;;27.90;59.20;;;;;;6185040;23;20579;-71
2023/06/06 11:54:49;;;;;;;1999.90;999.90;;;28.30;60.00;;;;;;6290037;22;20059;-70
2023/06/06 11:57:17;;;;;;;1999.90;999.90;;;28.80;55.50;;;;;;6185974;23;20006;-70
2023/06/06 11:59:44;;;;;;;1999.90;999.90;;;28.70;59.30;;;;;;6289772;22;20010;-71
2023/06/06 12:02:13;;;;;;;1999.90;999.90;;;28.90;59.40;;;;;;6185098;22;20086;-71